createdAt,value
2016-05-10T00:01:46.629Z,1013.35
2016-05-10T00:05:02.997Z,1013.37
2016-05-10T00:08:10.443Z,1013.31
2016-05-10T00:11:13.607Z,1013.39
2016-05-10T00:14:25.711Z,1013.33
2016-05-10T00:17:37.825Z,1013.31
2016-05-10T00:20:48.127Z,1013.33
2016-05-10T00:23:59.273Z,1013.25
2016-05-10T00:27:11.594Z,1013.33
2016-05-10T00:30:23.910Z,1013.21
2016-05-10T00:33:36.438Z,1013.35
2016-05-10T00:36:49.011Z,1013.27
2016-05-10T00:40:05.473Z,1013.27
2016-05-10T00:43:12.919Z,1013.25
2016-05-10T00:46:16.413Z,1013.33
2016-05-10T00:49:28.626Z,1013.27
2016-05-10T00:52:41.024Z,1013.23
2016-05-10T00:55:53.565Z,1013.23
2016-05-10T00:59:10.368Z,1013.19
2016-05-10T01:02:14.189Z,1013.17
2016-05-10T01:05:26.731Z,1013.17
2016-05-10T01:08:39.380Z,1013.25
2016-05-10T01:11:52.263Z,1013.25
2016-05-10T01:15:09.022Z,1013.33
2016-05-10T01:18:12.936Z,1013.43
2016-05-10T01:21:25.665Z,1013.39
2016-05-10T01:24:38.721Z,1013.29
2016-05-10T01:27:51.556Z,1013.17
2016-05-10T01:31:08.439Z,1013.25
2016-05-10T01:34:12.557Z,1013.07
2016-05-10T01:37:25.489Z,1013.13
2016-05-10T01:40:38.482Z,1013.15
2016-05-10T01:43:51.505Z,1013.21
2016-05-10T01:47:08.311Z,1013.15
2016-05-10T01:50:12.287Z,1013.15
2016-05-10T01:53:25.142Z,1013.09
2016-05-10T01:56:38.087Z,1013.15
2016-05-10T01:59:48.127Z,1013.04
2016-05-10T02:03:04.947Z,1013
2016-05-10T02:06:12.893Z,1013.04
2016-05-10T02:09:16.744Z,1013.02
2016-05-10T02:12:29.522Z,1012.86
2016-05-10T02:15:42.341Z,1012.88
2016-05-10T02:18:55.241Z,1012.88
2016-05-10T02:22:11.921Z,1012.82
2016-05-10T02:25:15.772Z,1012.86
2016-05-10T02:28:28.299Z,1012.68
2016-05-10T02:31:41.181Z,1012.8
2016-05-10T02:34:53.643Z,1012.72
2016-05-10T02:38:10.369Z,1012.8
2016-05-10T02:41:14.347Z,1012.78
2016-05-10T02:44:27.200Z,1012.8
2016-05-10T02:47:39.865Z,1012.74
2016-05-10T02:50:52.623Z,1012.64
2016-05-10T02:54:09.288Z,1012.66
2016-05-10T02:57:13.296Z,1012.64
2016-05-10T03:00:26.040Z,1012.58
2016-05-10T03:03:38.830Z,1012.56
2016-05-10T03:06:51.760Z,1012.66
2016-05-10T03:10:08.268Z,1012.56
2016-05-10T03:13:12.058Z,1012.46
2016-05-10T03:16:24.958Z,1012.46
2016-05-10T03:19:37.544Z,1012.46
2016-05-10T03:22:50.334Z,1012.42
2016-05-10T03:26:06.593Z,1012.42
2016-05-10T03:29:10.366Z,1012.5
2016-05-10T03:32:22.843Z,1012.46
2016-05-10T03:35:35.573Z,1012.58
2016-05-10T03:38:48.127Z,1012.66
2016-05-10T03:42:04.636Z,1012.52
2016-05-10T03:45:12.487Z,1012.58
2016-05-10T03:48:16.120Z,1012.5
2016-05-10T03:51:28.521Z,1012.42
2016-05-10T03:54:41.046Z,1012.46
2016-05-10T03:57:53.554Z,1012.44
2016-05-10T04:01:10.077Z,1012.38
2016-05-10T04:04:13.835Z,1012.52
2016-05-10T04:07:26.346Z,1012.38
2016-05-10T04:10:39.010Z,1012.3
2016-05-10T04:13:51.815Z,1012.28
2016-05-10T04:17:08.698Z,1012.26
2016-05-10T04:20:12.503Z,1012.28
2016-05-10T04:23:25.108Z,1012.24
2016-05-10T04:26:37.803Z,1012.34
2016-05-10T04:29:50.280Z,1012.28
2016-05-10T04:33:06.648Z,1012.16
2016-05-10T04:36:10.546Z,1012.12
2016-05-10T04:39:23.257Z,1012.16
2016-05-10T04:42:36.018Z,1012.12
2016-05-10T04:45:48.901Z,1012.16
2016-05-10T04:49:05.909Z,1012.12
2016-05-10T04:52:09.949Z,1012.04
2016-05-10T04:55:22.894Z,1012
2016-05-10T04:58:32.233Z,1011.98
2016-05-10T05:01:45.116Z,1011.96
2016-05-10T05:04:58.405Z,1011.86
2016-05-10T05:08:10.992Z,1011.96
2016-05-10T05:11:24.063Z,1011.9
2016-05-10T05:14:37.995Z,1011.8
2016-05-10T05:17:51.081Z,1010.23
2016-05-10T05:21:09.745Z,1009.02
2016-05-10T05:24:15.675Z,1008.6
2016-05-10T05:27:30.702Z,1007.95
2016-05-10T05:30:46.272Z,1007.79
2016-05-10T05:34:05.438Z,1007.69
2016-05-10T05:37:12.273Z,1007.71
2016-05-10T05:40:27.390Z,1007.91
2016-05-10T05:43:42.526Z,1008.34
2016-05-10T05:46:57.878Z,1008.92
2016-05-10T05:50:12.074Z,1009.02
2016-05-10T05:53:29.131Z,1009.3
2016-05-10T05:56:45.108Z,1009.32
2016-05-10T06:00:05.460Z,1009.78
2016-05-10T06:03:11.921Z,1010.05
2016-05-10T06:06:28.866Z,1010.17
2016-05-10T06:09:44.751Z,1010.21
2016-05-10T06:13:04.479Z,1010.27
2016-05-10T06:16:11.659Z,1010.17
2016-05-10T06:19:27.354Z,1010.11
2016-05-10T06:22:42.522Z,1009.85
2016-05-10T06:25:57.655Z,1009.8
2016-05-10T06:29:13.006Z,1009.6
2016-05-10T06:32:28.219Z,1009.52
2016-05-10T06:35:43.494Z,1009.66
2016-05-10T06:38:57.580Z,1009.6
2016-05-10T06:42:14.307Z,1009.6
2016-05-10T06:45:30.143Z,1009.64
2016-05-10T06:48:46.201Z,1009.68
2016-05-10T06:52:06.053Z,1009.66
2016-05-10T06:55:13.576Z,1009.74
2016-05-10T06:58:27.366Z,1009.74
2016-05-10T07:01:43.126Z,1009.72
2016-05-10T07:04:59.025Z,1009.85
2016-05-10T07:08:14.611Z,1009.82
2016-05-10T07:11:29.901Z,1009.84
2016-05-10T07:14:45.490Z,1009.85
2016-05-10T07:18:04.685Z,1009.87
2016-05-10T07:21:11.318Z,1009.91
2016-05-10T07:24:26.358Z,1009.91
2016-05-10T07:27:38.869Z,1009.91
2016-05-10T07:30:54.079Z,1009.8
2016-05-10T07:34:13.213Z,1009.89
2016-05-10T07:37:19.783Z,1009.91
2016-05-10T07:40:34.637Z,1010.01
2016-05-10T07:43:49.474Z,1009.89
2016-05-10T07:47:08.295Z,1010.15
2016-05-10T07:50:14.521Z,1010.17
2016-05-10T07:53:29.264Z,1010.19
2016-05-10T07:56:44.103Z,1010.29
2016-05-10T07:59:59.330Z,1010.33
2016-05-10T08:03:13.822Z,1010.31
2016-05-10T08:06:26.939Z,1010.37
2016-05-10T08:09:39.060Z,1010.25
2016-05-10T08:12:52.724Z,1010.29
2016-05-10T08:16:12.466Z,1010.31
2016-05-10T08:19:18.334Z,1010.19
2016-05-10T08:22:32.795Z,1010.23
2016-05-10T08:25:47.461Z,1010.29
2016-05-10T08:29:06.048Z,1010.21
2016-05-10T08:32:12.306Z,1010.17
2016-05-10T08:35:26.752Z,1010.13
2016-05-10T08:38:41.465Z,1010.01
2016-05-10T08:41:56.067Z,1010.01
2016-05-10T08:45:10.685Z,1009.97
2016-05-10T08:48:25.209Z,1009.97
2016-05-10T08:51:39.657Z,1010.01
2016-05-10T08:54:54.337Z,1009.85
2016-05-10T08:58:12.970Z,1009.91
2016-05-10T09:01:18.884Z,1009.78
2016-05-10T09:04:33.407Z,1009.82
2016-05-10T09:07:47.903Z,1009.87
2016-05-10T09:11:19.849Z,1009.78
2016-05-10T09:14:12.779Z,1009.8
2016-05-10T09:17:27.224Z,1009.66
2016-05-10T09:20:42.152Z,1009.6
2016-05-10T09:23:57.088Z,1009.74
2016-05-10T09:27:12.158Z,1009.56
2016-05-10T09:30:26.943Z,1009.58
2016-05-10T09:33:42.081Z,1009.52
2016-05-10T09:36:56.953Z,1009.62
2016-05-10T09:40:11.934Z,1009.58
2016-05-10T09:43:26.789Z,1009.56
2016-05-10T09:46:41.676Z,1009.5
2016-05-10T09:49:56.434Z,1009.46
2016-05-10T09:53:11.129Z,1009.38
2016-05-10T09:56:26.075Z,1009.4
2016-05-10T09:59:40.961Z,1009.42
2016-05-10T10:02:55.953Z,1009.36
2016-05-10T10:06:10.821Z,1009.22
2016-05-10T10:09:25.798Z,1009.22
2016-05-10T10:12:40.637Z,1009.26
2016-05-10T10:15:55.645Z,1009.26
2016-05-10T10:19:10.356Z,1009.16
2016-05-10T10:22:24.957Z,1009.16
2016-05-10T10:25:39.623Z,1009
2016-05-10T10:28:54.023Z,1008.98
2016-05-10T10:32:12.750Z,1009
2016-05-10T10:35:18.805Z,1008.82
2016-05-10T10:38:33.672Z,1008.92
2016-05-10T10:41:48.543Z,1008.98
2016-05-10T10:45:07.551Z,1008.8
2016-05-10T10:48:13.684Z,1008.8
2016-05-10T10:51:28.208Z,1008.78
2016-05-10T10:54:43.031Z,1008.78
2016-05-10T10:57:57.867Z,1008.68
2016-05-10T11:01:12.672Z,1008.64
2016-05-10T11:04:27.587Z,1008.58
2016-05-10T11:07:42.488Z,1008.62
2016-05-10T11:10:57.355Z,1008.52
2016-05-10T11:14:12.176Z,1008.52
2016-05-10T11:17:27.059Z,1008.48
2016-05-10T11:20:41.926Z,1008.43
2016-05-10T11:23:56.249Z,1008.6
2016-05-10T11:27:10.367Z,1008.58
2016-05-10T11:30:24.109Z,1008.6
2016-05-10T11:33:37.477Z,1008.8
2016-05-10T11:36:51.019Z,1008.74
2016-05-10T11:40:08.886Z,1008.92
2016-05-10T11:43:14.754Z,1008.92
2016-05-10T11:46:29.231Z,1009.04
2016-05-10T11:49:44.129Z,1008.94
2016-05-10T11:52:59.140Z,1009
2016-05-10T11:56:14.148Z,1009
2016-05-10T11:59:29.265Z,1008.92
2016-05-10T12:02:44.336Z,1008.88
2016-05-10T12:05:58.800Z,1008.86
2016-05-10T12:09:13.714Z,1008.8
2016-05-10T12:12:28.691Z,1008.72
2016-05-10T12:15:43.605Z,1008.78
2016-05-10T12:18:58.788Z,1008.84
2016-05-10T12:22:13.718Z,1008.64
2016-05-10T12:25:28.977Z,1008.54
2016-05-10T12:28:44.094Z,1008.58
2016-05-10T12:31:59.275Z,1008.68
2016-05-10T12:35:14.440Z,1008.62
2016-05-10T12:38:29.230Z,1008.5
2016-05-10T12:41:44.441Z,1008.66
2016-05-10T12:45:00.061Z,1008.46
2016-05-10T12:48:14.632Z,1008.34
2016-05-10T12:51:29.624Z,1008.44
2016-05-10T12:54:44.413Z,1008.22
2016-05-10T12:57:59.112Z,1008.28
2016-05-10T13:01:14.057Z,1008.32
2016-05-10T13:04:29.159Z,1008.34
2016-05-10T13:07:44.058Z,1008.28
2016-05-10T13:10:59.069Z,1008.26
2016-05-10T13:14:14.170Z,1008.22
2016-05-10T13:17:29.178Z,1008.1
2016-05-10T13:20:44.093Z,1008.16
2016-05-10T13:23:59.025Z,1008.06
2016-05-10T13:27:13.768Z,1007.98
2016-05-10T13:30:28.526Z,1008.02
2016-05-10T13:33:43.440Z,1008.04
2016-05-10T13:36:58.232Z,1008.02
2016-05-10T13:40:13.255Z,1007.97
2016-05-10T13:43:38.514Z,1007.91
2016-05-10T13:46:42.913Z,1007.75
2016-05-10T13:49:57.502Z,1007.71
2016-05-10T13:53:12.432Z,1007.73
2016-05-10T13:56:27.502Z,1007.65
2016-05-10T13:59:42.385Z,1007.77
2016-05-10T14:02:57.162Z,1007.79
2016-05-10T14:06:11.889Z,1007.71
2016-05-10T14:09:26.756Z,1007.63
2016-05-10T14:12:41.670Z,1007.57
2016-05-10T14:15:56.634Z,1007.57
2016-05-10T14:19:11.580Z,1007.57
2016-05-10T14:22:26.291Z,1007.51
2016-05-10T14:25:41.221Z,1007.53
2016-05-10T14:28:56.058Z,1007.43
2016-05-10T14:32:10.974Z,1007.45
2016-05-10T14:35:25.982Z,1007.53
2016-05-10T14:38:40.631Z,1007.57
2016-05-10T14:41:55.373Z,1007.39
2016-05-10T14:45:14.306Z,1007.47
2016-05-10T14:48:20.455Z,1007.57
2016-05-10T14:51:35.166Z,1007.37
2016-05-10T14:54:49.736Z,1007.29
2016-05-10T14:58:08.529Z,1007.39
2016-05-10T15:01:14.693Z,1007.27
2016-05-10T15:04:29.326Z,1007.43
2016-05-10T15:07:44.397Z,1007.31
2016-05-10T15:10:59.248Z,1007.15
2016-05-10T15:14:14.478Z,1007.23
2016-05-10T15:17:28.767Z,1007.11
2016-05-10T15:20:43.339Z,1007.15
2016-05-10T15:23:58.189Z,1007.03
2016-05-10T15:27:13.060Z,1007.17
2016-05-10T15:30:27.646Z,1006.97
2016-05-10T15:33:41.935Z,1007.03
2016-05-10T15:36:56.740Z,1007.03
2016-05-10T15:40:11.610Z,1007.01
2016-05-10T15:43:26.290Z,1006.83
2016-05-10T15:46:41.079Z,1007.03
2016-05-10T15:49:55.853Z,1006.93
2016-05-10T15:53:10.395Z,1006.93
2016-05-10T15:56:25.138Z,1006.89
2016-05-10T15:59:39.880Z,1006.87
2016-05-10T16:02:54.858Z,1006.79
2016-05-10T16:06:13.555Z,1006.57
2016-05-10T16:09:19.688Z,1006.75
2016-05-10T16:12:34.556Z,1006.73
2016-05-10T16:15:49.221Z,1006.75
2016-05-10T16:19:07.981Z,1006.69
2016-05-10T16:22:14.051Z,1006.79
2016-05-10T16:25:27.575Z,1006.69
2016-05-10T16:28:43.208Z,1006.59
2016-05-10T16:31:57.858Z,1006.79
2016-05-10T16:35:12.290Z,1006.77
2016-05-10T16:38:26.876Z,1006.73
2016-05-10T16:41:41.524Z,1006.73
2016-05-10T16:44:56.221Z,1006.52
2016-05-10T16:48:10.621Z,1006.71
2016-05-10T16:51:25.302Z,1006.61
2016-05-10T16:54:39.920Z,1006.63
2016-05-10T16:57:54.208Z,1006.65
2016-05-10T17:01:12.766Z,1006.67
2016-05-10T17:04:18.664Z,1006.65
2016-05-10T17:07:33.172Z,1006.69
2016-05-10T17:10:47.430Z,1006.73
2016-05-10T17:14:05.829Z,1006.71
2016-05-10T17:17:11.606Z,1006.69
2016-05-10T17:20:26.052Z,1006.69
2016-05-10T17:23:40.231Z,1006.69
2016-05-10T17:26:51.631Z,1006.55
2016-05-10T17:30:09.935Z,1006.61
2016-05-10T17:33:15.133Z,1006.65
2016-05-10T17:36:29.094Z,1006.71
2016-05-10T17:39:41.930Z,1006.73
2016-05-10T17:42:54.470Z,1006.75
2016-05-10T17:46:11.415Z,1006.75
2016-05-10T17:49:15.910Z,1006.71
2016-05-10T17:52:29.310Z,1006.73
2016-05-10T17:55:42.755Z,1006.81
2016-05-10T17:58:55.809Z,1006.83
2016-05-10T18:02:13.211Z,1006.85
2016-05-10T18:05:17.844Z,1006.85
2016-05-10T18:08:31.181Z,1006.87
2016-05-10T18:11:44.485Z,1006.89
2016-05-10T18:14:57.572Z,1006.99
2016-05-10T18:18:10.845Z,1006.95
2016-05-10T18:21:24.262Z,1007.03
2016-05-10T18:24:37.676Z,1006.99
2016-05-10T18:27:51.048Z,1006.85
2016-05-10T18:31:08.290Z,1006.97
2016-05-10T18:34:12.861Z,1006.95
2016-05-10T18:37:26.449Z,1007.05
2016-05-10T18:40:39.813Z,1007.13
2016-05-10T18:43:53.170Z,1007.09
2016-05-10T18:47:10.524Z,1007.09
2016-05-10T18:50:15.366Z,1007.23
2016-05-10T18:53:28.764Z,1007.21
2016-05-10T18:56:42.195Z,1007.27
2016-05-10T18:59:55.843Z,1007.25
2016-05-10T19:03:13.211Z,1007.29
2016-05-10T19:06:18.065Z,1007.21
2016-05-10T19:09:31.636Z,1007.29
2016-05-10T19:12:44.878Z,1007.29
2016-05-10T19:15:58.354Z,1007.35
2016-05-10T19:19:11.675Z,1007.39
2016-05-10T19:22:25.202Z,1007.49
2016-05-10T19:25:38.725Z,1007.47
2016-05-10T19:28:52.139Z,1007.39
2016-05-10T19:32:09.508Z,1007.47
2016-05-10T19:35:14.046Z,1007.49
2016-05-10T19:38:27.277Z,1007.39
2016-05-10T19:41:40.518Z,1007.53
2016-05-10T19:44:53.715Z,1007.53
2016-05-10T19:48:08.801Z,1007.53
2016-05-10T19:51:13.387Z,1007.51
2016-05-10T19:54:26.725Z,1007.61
2016-05-10T19:57:39.953Z,1007.61
2016-05-10T20:00:53.351Z,1007.61
2016-05-10T20:04:10.765Z,1007.67
2016-05-10T20:07:15.274Z,1007.63
2016-05-10T20:10:28.440Z,1007.65
2016-05-10T20:13:41.229Z,1007.73
2016-05-10T20:16:54.284Z,1007.73
2016-05-10T20:20:11.527Z,1007.59
2016-05-10T20:21:14.154Z,1007.57
2016-05-10T20:24:25.556Z,1007.65
2016-05-10T20:27:38.252Z,1007.59
2016-05-10T20:30:51.228Z,1007.51
2016-05-10T20:34:08.283Z,1007.57
2016-05-10T20:37:12.479Z,1007.69
2016-05-10T20:40:24.802Z,1007.59
2016-05-10T20:43:37.982Z,1007.43
2016-05-10T20:46:51.115Z,1007.45
2016-05-10T20:50:08.092Z,1007.41
2016-05-10T20:53:12.662Z,1007.45
2016-05-10T20:56:25.986Z,1007.37
2016-05-10T20:59:39.197Z,1007.47
2016-05-10T21:02:52.361Z,1007.33
2016-05-10T21:06:09.838Z,1007.37
2016-05-10T21:09:14.283Z,1007.43
2016-05-10T21:12:27.576Z,1007.33
2016-05-10T21:15:40.537Z,1007.29
2016-05-10T21:18:53.639Z,1007.29
2016-05-10T21:22:10.662Z,1007.33
2016-05-10T21:25:14.905Z,1007.23
2016-05-10T21:28:28.275Z,1007.31
2016-05-10T21:31:40.080Z,1007.29
2016-05-10T21:34:53.260Z,1007.23
2016-05-10T21:38:10.236Z,1007.25
2016-05-10T21:41:14.791Z,1007.33
2016-05-10T21:44:28.177Z,1007.29
2016-05-10T21:47:41.217Z,1007.27
2016-05-10T21:50:54.303Z,1007.21
2016-05-10T21:54:11.592Z,1007.19
2016-05-10T21:57:16.131Z,1007.21
2016-05-10T22:00:27.314Z,1007.19
2016-05-10T22:03:40.261Z,1007.19
2016-05-10T22:06:53.503Z,1007.21
2016-05-10T22:10:10.635Z,1007.21
2016-05-10T22:13:15.112Z,1007.23
2016-05-10T22:16:28.201Z,1007.15
2016-05-10T22:19:41.396Z,1007.15
2016-05-10T22:22:54.764Z,1007.11
2016-05-10T22:26:10.162Z,1007.13
2016-05-10T22:29:14.405Z,1007.15
2016-05-10T22:32:27.431Z,1007.05
2016-05-10T22:35:40.377Z,1007.03
2016-05-10T22:38:53.432Z,1007.07
2016-05-10T22:42:10.346Z,1007.09
2016-05-10T22:45:14.666Z,1007.03
2016-05-10T22:48:24.787Z,1007.05
2016-05-10T22:51:37.685Z,1007.03
2016-05-10T22:54:50.522Z,1007.07
2016-05-10T22:58:07.326Z,1007.05
2016-05-10T23:01:11.506Z,1007.03
2016-05-10T23:04:24.564Z,1007.09
2016-05-10T23:07:36.385Z,1006.93
2016-05-10T23:10:49.268Z,1006.99
2016-05-10T23:14:05.808Z,1007.01
2016-05-10T23:17:14.191Z,1006.97
2016-05-10T23:20:18.418Z,1006.87
2016-05-10T23:23:31.568Z,1006.95
2016-05-10T23:26:44.389Z,1006.95
2016-05-10T23:29:57.834Z,1006.99
2016-05-10T23:33:14.311Z,1006.87
2016-05-10T23:36:18.366Z,1006.89
2016-05-10T23:39:31.300Z,1006.95
2016-05-10T23:42:43.776Z,1006.91
2016-05-10T23:45:56.377Z,1006.93
2016-05-10T23:49:13.026Z,1006.93
2016-05-10T23:52:17.221Z,1006.93
2016-05-10T23:55:30.358Z,1006.91
2016-05-10T23:58:43.507Z,1006.93
